sensor_id;sensor_type;location;lat;lon;timestamp;temperature;humidity
23122;DHT22;11730;51.248;22.534;2022-10-31T00:01:34;11.50;99.90
23122;DHT22;11730;51.248;22.534;2022-10-31T00:04:00;11.40;99.90
23122;DHT22;11730;51.248;22.534;2022-10-31T00:08:57;11.40;99.90
23122;DHT22;11730;51.248;22.534;2022-10-31T00:11:24;11.40;99.90
23122;DHT22;11730;51.248;22.534;2022-10-31T00:13:52;11.40;99.90
23122;DHT22;11730;51.248;22.534;2022-10-31T00:16:21;11.30;99.90
23122;DHT22;11730;51.248;22.534;2022-10-31T00:18:52;11.20;99.90
23122;DHT22;11730;51.248;22.534;2022-10-31T00:21:20;11.20;99.90
23122;DHT22;11730;51.248;22.534;2022-10-31T00:23:47;11.20;99.90
23122;DHT22;11730;51.248;22.534;2022-10-31T00:26:14;11.20;99.90
23122;DHT22;11730;51.248;22.534;2022-10-31T00:28:41;11.10;99.90
23122;DHT22;11730;51.248;22.534;2022-10-31T00:31:10;11.10;99.90
23122;DHT22;11730;51.248;22.534;2022-10-31T00:33:38;11.10;99.90
23122;DHT22;11730;51.248;22.534;2022-10-31T00:36:06;11.10;99.90
23122;DHT22;11730;51.248;22.534;2022-10-31T00:38:33;11.10;99.90
23122;DHT22;11730;51.248;22.534;2022-10-31T00:41:00;11.20;99.90
23122;DHT22;11730;51.248;22.534;2022-10-31T00:43:27;11.20;99.90
23122;DHT22;11730;51.248;22.534;2022-10-31T00:45:54;11.30;99.90
23122;DHT22;11730;51.248;22.534;2022-10-31T00:48:21;11.50;99.90
23122;DHT22;11730;51.248;22.534;2022-10-31T00:50:48;11.60;99.90
23122;DHT22;11730;51.248;22.534;2022-10-31T00:53:15;11.60;99.90
23122;DHT22;11730;51.248;22.534;2022-10-31T00:55:42;11.70;99.90
23122;DHT22;11730;51.248;22.534;2022-10-31T00:58:09;11.70;99.90
23122;DHT22;11730;51.248;22.534;2022-10-31T01:00:36;11.50;99.90
23122;DHT22;11730;51.248;22.534;2022-10-31T01:03:03;11.30;99.90
23122;DHT22;11730;51.248;22.534;2022-10-31T01:05:29;11.10;99.90
23122;DHT22;11730;51.248;22.534;2022-10-31T01:07:56;11.10;99.90
23122;DHT22;11730;51.248;22.534;2022-10-31T01:10:24;11.00;99.90
23122;DHT22;11730;51.248;22.534;2022-10-31T01:12:51;10.90;99.90
23122;DHT22;11730;51.248;22.534;2022-10-31T01:15:22;10.90;99.90
23122;DHT22;11730;51.248;22.534;2022-10-31T01:17:49;11.00;99.90
23122;DHT22;11730;51.248;22.534;2022-10-31T01:20:17;11.10;99.90
23122;DHT22;11730;51.248;22.534;2022-10-31T01:22:44;11.30;99.90
23122;DHT22;11730;51.248;22.534;2022-10-31T01:25:12;11.40;99.90
23122;DHT22;11730;51.248;22.534;2022-10-31T01:27:39;11.30;99.90
23122;DHT22;11730;51.248;22.534;2022-10-31T01:30:06;11.10;99.90
23122;DHT22;11730;51.248;22.534;2022-10-31T01:32:33;11.10;99.90
23122;DHT22;11730;51.248;22.534;2022-10-31T01:35:00;10.90;99.90
23122;DHT22;11730;51.248;22.534;2022-10-31T01:37:27;10.80;99.90
23122;DHT22;11730;51.248;22.534;2022-10-31T01:39:54;10.60;99.90
23122;DHT22;11730;51.248;22.534;2022-10-31T01:42:22;10.70;99.90
23122;DHT22;11730;51.248;22.534;2022-10-31T01:44:53;10.80;99.90
23122;DHT22;11730;51.248;22.534;2022-10-31T01:47:40;10.80;99.90
23122;DHT22;11730;51.248;22.534;2022-10-31T01:50:28;10.70;99.90
23122;DHT22;11730;51.248;22.534;2022-10-31T01:52:57;10.80;99.90
23122;DHT22;11730;51.248;22.534;2022-10-31T01:55:30;10.90;99.90
23122;DHT22;11730;51.248;22.534;2022-10-31T01:58:08;10.80;99.90
23122;DHT22;11730;51.248;22.534;2022-10-31T02:00:37;10.80;99.90
23122;DHT22;11730;51.248;22.534;2022-10-31T02:03:04;10.40;99.90
23122;DHT22;11730;51.248;22.534;2022-10-31T02:05:32;10.10;99.90
23122;DHT22;11730;51.248;22.534;2022-10-31T02:08:03;10.00;99.90
23122;DHT22;11730;51.248;22.534;2022-10-31T02:10:33;10.00;99.90
23122;DHT22;11730;51.248;22.534;2022-10-31T02:13:03;10.00;99.90
23122;DHT22;11730;51.248;22.534;2022-10-31T02:15:31;10.20;99.90
23122;DHT22;11730;51.248;22.534;2022-10-31T02:17:59;10.20;99.90
23122;DHT22;11730;51.248;22.534;2022-10-31T02:20:35;10.10;99.90
23122;DHT22;11730;51.248;22.534;2022-10-31T02:36:53;9.90;99.90
23122;DHT22;11730;51.248;22.534;2022-10-31T02:47:26;9.80;99.90
23122;DHT22;11730;51.248;22.534;2022-10-31T02:52:32;9.90;99.90
23122;DHT22;11730;51.248;22.534;2022-10-31T02:55:54;9.80;99.90
23122;DHT22;11730;51.248;22.534;2022-10-31T02:58:05;9.80;99.90
23122;DHT22;11730;51.248;22.534;2022-10-31T03:01:21;9.70;99.90
23122;DHT22;11730;51.248;22.534;2022-10-31T03:03:41;9.70;99.90
23122;DHT22;11730;51.248;22.534;2022-10-31T03:07:02;9.80;99.90
23122;DHT22;11730;51.248;22.534;2022-10-31T03:17:22;9.70;99.90
23122;DHT22;11730;51.248;22.534;2022-10-31T03:19:53;9.70;99.90
23122;DHT22;11730;51.248;22.534;2022-10-31T03:22:25;9.70;99.90
23122;DHT22;11730;51.248;22.534;2022-10-31T03:24:53;9.70;99.90
23122;DHT22;11730;51.248;22.534;2022-10-31T03:27:26;9.70;99.90
23122;DHT22;11730;51.248;22.534;2022-10-31T03:29:56;9.80;99.90
23122;DHT22;11730;51.248;22.534;2022-10-31T03:32:36;9.80;99.90
23122;DHT22;11730;51.248;22.534;2022-10-31T03:35:06;9.70;99.90
23122;DHT22;11730;51.248;22.534;2022-10-31T03:37:35;9.70;99.90
23122;DHT22;11730;51.248;22.534;2022-10-31T03:40:06;9.80;99.90
23122;DHT22;11730;51.248;22.534;2022-10-31T03:42:40;9.90;99.90
23122;DHT22;11730;51.248;22.534;2022-10-31T03:45:22;9.90;99.90
23122;DHT22;11730;51.248;22.534;2022-10-31T03:47:52;10.00;99.90
23122;DHT22;11730;51.248;22.534;2022-10-31T03:50:20;10.10;99.90
23122;DHT22;11730;51.248;22.534;2022-10-31T03:53:08;10.20;99.90
23122;DHT22;11730;51.248;22.534;2022-10-31T03:55:42;10.20;99.90
23122;DHT22;11730;51.248;22.534;2022-10-31T03:58:34;10.20;99.90
23122;DHT22;11730;51.248;22.534;2022-10-31T04:01:05;10.10;99.90
23122;DHT22;11730;51.248;22.534;2022-10-31T04:03:36;10.00;99.90
23122;DHT22;11730;51.248;22.534;2022-10-31T04:06:08;9.90;99.90
23122;DHT22;11730;51.248;22.534;2022-10-31T04:08:42;9.80;99.90
23122;DHT22;11730;51.248;22.534;2022-10-31T04:11:12;9.80;99.90
23122;DHT22;11730;51.248;22.534;2022-10-31T04:13:42;9.80;99.90
23122;DHT22;11730;51.248;22.534;2022-10-31T04:16:12;9.70;99.90
23122;DHT22;11730;51.248;22.534;2022-10-31T04:18:43;9.80;99.90
23122;DHT22;11730;51.248;22.534;2022-10-31T04:21:10;9.80;99.90
23122;DHT22;11730;51.248;22.534;2022-10-31T04:23:37;9.80;99.90
23122;DHT22;11730;51.248;22.534;2022-10-31T04:26:04;9.70;99.90
23122;DHT22;11730;51.248;22.534;2022-10-31T04:28:31;9.70;99.90
23122;DHT22;11730;51.248;22.534;2022-10-31T04:30:59;9.80;99.90
23122;DHT22;11730;51.248;22.534;2022-10-31T04:33:26;9.60;99.90
23122;DHT22;11730;51.248;22.534;2022-10-31T04:35:53;9.40;99.90
23122;DHT22;11730;51.248;22.534;2022-10-31T04:38:20;9.50;99.90
23122;DHT22;11730;51.248;22.534;2022-10-31T04:40:47;9.50;99.90
23122;DHT22;11730;51.248;22.534;2022-10-31T04:43:14;9.50;99.90
23122;DHT22;11730;51.248;22.534;2022-10-31T04:45:40;9.40;99.90
23122;DHT22;11730;51.248;22.534;2022-10-31T04:48:07;9.50;99.90
23122;DHT22;11730;51.248;22.534;2022-10-31T04:50:34;9.40;99.90
23122;DHT22;11730;51.248;22.534;2022-10-31T04:53:02;9.30;99.90
23122;DHT22;11730;51.248;22.534;2022-10-31T04:55:28;9.40;99.90
23122;DHT22;11730;51.248;22.534;2022-10-31T04:57:56;9.10;99.90
23122;DHT22;11730;51.248;22.534;2022-10-31T05:00:24;8.90;99.90
23122;DHT22;11730;51.248;22.534;2022-10-31T05:02:53;8.80;99.90
23122;DHT22;11730;51.248;22.534;2022-10-31T05:05:23;8.80;99.90
23122;DHT22;11730;51.248;22.534;2022-10-31T05:07:51;8.90;99.90
23122;DHT22;11730;51.248;22.534;2022-10-31T05:10:20;9.10;99.90
23122;DHT22;11730;51.248;22.534;2022-10-31T05:12:55;9.20;99.90
23122;DHT22;11730;51.248;22.534;2022-10-31T05:15:25;9.20;99.90
23122;DHT22;11730;51.248;22.534;2022-10-31T05:17:53;9.20;99.90
23122;DHT22;11730;51.248;22.534;2022-10-31T05:20:23;9.00;99.90
23122;DHT22;11730;51.248;22.534;2022-10-31T05:22:53;9.00;99.90
23122;DHT22;11730;51.248;22.534;2022-10-31T05:25:22;9.20;99.90
23122;DHT22;11730;51.248;22.534;2022-10-31T05:27:51;9.20;99.90
23122;DHT22;11730;51.248;22.534;2022-10-31T05:30:25;8.90;99.90
23122;DHT22;11730;51.248;22.534;2022-10-31T05:32:52;8.70;99.90
23122;DHT22;11730;51.248;22.534;2022-10-31T05:35:30;8.40;99.90
23122;DHT22;11730;51.248;22.534;2022-10-31T05:37:57;8.40;99.90
23122;DHT22;11730;51.248;22.534;2022-10-31T05:40:25;8.60;99.90
23122;DHT22;11730;51.248;22.534;2022-10-31T05:42:54;8.80;99.90
23122;DHT22;11730;51.248;22.534;2022-10-31T05:45:22;8.70;99.90
23122;DHT22;11730;51.248;22.534;2022-10-31T05:47:59;8.70;99.90
23122;DHT22;11730;51.248;22.534;2022-10-31T05:50:29;8.90;99.90
23122;DHT22;11730;51.248;22.534;2022-10-31T05:53:01;9.00;99.90
23122;DHT22;11730;51.248;22.534;2022-10-31T05:55:29;9.10;99.90
23122;DHT22;11730;51.248;22.534;2022-10-31T05:57:57;9.00;99.90
23122;DHT22;11730;51.248;22.534;2022-10-31T06:00:25;9.20;99.90
23122;DHT22;11730;51.248;22.534;2022-10-31T06:03:05;9.10;99.90
23122;DHT22;11730;51.248;22.534;2022-10-31T06:05:32;9.20;99.90
23122;DHT22;11730;51.248;22.534;2022-10-31T06:08:00;9.10;99.90
23122;DHT22;11730;51.248;22.534;2022-10-31T06:10:27;9.50;99.90
23122;DHT22;11730;51.248;22.534;2022-10-31T06:12:55;10.00;99.90
23122;DHT22;11730;51.248;22.534;2022-10-31T06:15:22;9.80;99.90
23122;DHT22;11730;51.248;22.534;2022-10-31T06:18:04;9.90;99.90
23122;DHT22;11730;51.248;22.534;2022-10-31T06:20:32;9.80;99.90
23122;DHT22;11730;51.248;22.534;2022-10-31T06:22:59;10.00;99.90
23122;DHT22;11730;51.248;22.534;2022-10-31T06:25:27;9.90;99.90
23122;DHT22;11730;51.248;22.534;2022-10-31T06:27:54;9.70;99.90
23122;DHT22;11730;51.248;22.534;2022-10-31T06:30:22;9.50;99.90
23122;DHT22;11730;51.248;22.534;2022-10-31T06:32:49;9.80;99.90
23122;DHT22;11730;51.248;22.534;2022-10-31T06:35:16;9.70;99.90
23122;DHT22;11730;51.248;22.534;2022-10-31T06:37:51;10.20;99.90
23122;DHT22;11730;51.248;22.534;2022-10-31T06:40:18;10.70;99.90
23122;DHT22;11730;51.248;22.534;2022-10-31T06:42:45;10.20;99.90
23122;DHT22;11730;51.248;22.534;2022-10-31T06:45:12;10.00;99.90
23122;DHT22;11730;51.248;22.534;2022-10-31T06:47:39;10.10;99.90
23122;DHT22;11730;51.248;22.534;2022-10-31T06:50:26;10.10;99.90
23122;DHT22;11730;51.248;22.534;2022-10-31T06:52:57;9.90;99.90
23122;DHT22;11730;51.248;22.534;2022-10-31T06:55:25;10.20;99.90
23122;DHT22;11730;51.248;22.534;2022-10-31T06:57:57;10.50;99.90
23122;DHT22;11730;51.248;22.534;2022-10-31T07:00:29;10.80;99.90
23122;DHT22;11730;51.248;22.534;2022-10-31T07:03:02;11.50;99.90
23122;DHT22;11730;51.248;22.534;2022-10-31T07:05:29;11.70;99.90
23122;DHT22;11730;51.248;22.534;2022-10-31T07:08:02;11.60;99.90
23122;DHT22;11730;51.248;22.534;2022-10-31T07:10:31;12.40;99.90
23122;DHT22;11730;51.248;22.534;2022-10-31T07:13:06;11.80;99.90
23122;DHT22;11730;51.248;22.534;2022-10-31T07:15:35;12.50;99.90
23122;DHT22;11730;51.248;22.534;2022-10-31T07:18:04;13.50;99.90
23122;DHT22;11730;51.248;22.534;2022-10-31T07:20:31;12.70;99.90
23122;DHT22;11730;51.248;22.534;2022-10-31T07:22:58;13.50;99.90
23122;DHT22;11730;51.248;22.534;2022-10-31T07:25:26;13.50;99.90
23122;DHT22;11730;51.248;22.534;2022-10-31T07:27:53;13.30;99.90
23122;DHT22;11730;51.248;22.534;2022-10-31T07:30:20;14.10;99.90
23122;DHT22;11730;51.248;22.534;2022-10-31T07:32:48;13.80;99.90
23122;DHT22;11730;51.248;22.534;2022-10-31T07:35:18;14.20;99.90
23122;DHT22;11730;51.248;22.534;2022-10-31T07:37:45;13.80;99.90
23122;DHT22;11730;51.248;22.534;2022-10-31T07:40:12;13.90;99.90
23122;DHT22;11730;51.248;22.534;2022-10-31T07:42:44;13.90;99.90
23122;DHT22;11730;51.248;22.534;2022-10-31T07:45:13;13.80;99.90
23122;DHT22;11730;51.248;22.534;2022-10-31T07:47:41;14.00;99.90
23122;DHT22;11730;51.248;22.534;2022-10-31T07:50:11;14.90;99.90
23122;DHT22;11730;51.248;22.534;2022-10-31T07:52:38;15.10;99.90
23122;DHT22;11730;51.248;22.534;2022-10-31T07:55:05;15.80;99.90
23122;DHT22;11730;51.248;22.534;2022-10-31T07:57:33;15.70;99.90
23122;DHT22;11730;51.248;22.534;2022-10-31T08:00:00;15.60;99.90
23122;DHT22;11730;51.248;22.534;2022-10-31T08:02:27;15.70;99.90
23122;DHT22;11730;51.248;22.534;2022-10-31T08:04:54;15.90;99.90
23122;DHT22;11730;51.248;22.534;2022-10-31T08:07:27;16.40;99.90
23122;DHT22;11730;51.248;22.534;2022-10-31T08:09:55;16.80;99.90
23122;DHT22;11730;51.248;22.534;2022-10-31T08:12:22;17.20;99.90
23122;DHT22;11730;51.248;22.534;2022-10-31T08:14:49;17.10;99.50
23122;DHT22;11730;51.248;22.534;2022-10-31T08:17:16;17.50;99.90
23122;DHT22;11730;51.248;22.534;2022-10-31T08:19:43;18.00;99.50
23122;DHT22;11730;51.248;22.534;2022-10-31T08:22:10;18.60;98.30
23122;DHT22;11730;51.248;22.534;2022-10-31T08:24:37;18.50;96.50
23122;DHT22;11730;51.248;22.534;2022-10-31T08:27:05;18.60;96.60
23122;DHT22;11730;51.248;22.534;2022-10-31T08:29:32;18.30;96.10
23122;DHT22;11730;51.248;22.534;2022-10-31T08:31:59;18.30;96.70
23122;DHT22;11730;51.248;22.534;2022-10-31T08:34:25;18.60;96.50
23122;DHT22;11730;51.248;22.534;2022-10-31T08:36:52;19.30;95.30
23122;DHT22;11730;51.248;22.534;2022-10-31T08:39:19;19.40;94.60
23122;DHT22;11730;51.248;22.534;2022-10-31T08:41:46;19.50;92.60
23122;DHT22;11730;51.248;22.534;2022-10-31T08:44:13;19.90;92.50
23122;DHT22;11730;51.248;22.534;2022-10-31T08:46:40;20.80;91.00
23122;DHT22;11730;51.248;22.534;2022-10-31T08:49:07;20.70;91.00
23122;DHT22;11730;51.248;22.534;2022-10-31T08:51:34;21.00;90.70
23122;DHT22;11730;51.248;22.534;2022-10-31T08:54:00;20.60;90.20
23122;DHT22;11730;51.248;22.534;2022-10-31T08:56:27;19.90;90.70
23122;DHT22;11730;51.248;22.534;2022-10-31T08:58:54;21.20;89.10
23122;DHT22;11730;51.248;22.534;2022-10-31T09:01:21;21.90;86.40
23122;DHT22;11730;51.248;22.534;2022-10-31T09:03:49;21.00;87.40
23122;DHT22;11730;51.248;22.534;2022-10-31T09:06:15;20.80;87.40
23122;DHT22;11730;51.248;22.534;2022-10-31T09:08:42;19.60;89.40
23122;DHT22;11730;51.248;22.534;2022-10-31T09:11:10;20.80;88.60
23122;DHT22;11730;51.248;22.534;2022-10-31T09:13:37;20.70;86.20
23122;DHT22;11730;51.248;22.534;2022-10-31T09:16:07;19.40;89.80
23122;DHT22;11730;51.248;22.534;2022-10-31T09:18:34;19.60;90.40
23122;DHT22;11730;51.248;22.534;2022-10-31T09:21:01;19.30;89.40
23122;DHT22;11730;51.248;22.534;2022-10-31T09:23:28;20.30;89.90
23122;DHT22;11730;51.248;22.534;2022-10-31T09:25:59;21.00;86.20
23122;DHT22;11730;51.248;22.534;2022-10-31T09:28:27;20.90;85.20
23122;DHT22;11730;51.248;22.534;2022-10-31T09:30:54;21.30;85.60
23122;DHT22;11730;51.248;22.534;2022-10-31T09:33:22;21.80;83.30
23122;DHT22;11730;51.248;22.534;2022-10-31T09:35:49;21.20;85.40
23122;DHT22;11730;51.248;22.534;2022-10-31T09:38:18;22.60;81.60
23122;DHT22;11730;51.248;22.534;2022-10-31T09:43:39;21.40;80.50
23122;DHT22;11730;51.248;22.534;2022-10-31T09:51:53;22.40;80.40
23122;DHT22;11730;51.248;22.534;2022-10-31T09:54:44;21.70;80.80
23122;DHT22;11730;51.248;22.534;2022-10-31T09:57:15;21.70;84.10
23122;DHT22;11730;51.248;22.534;2022-10-31T09:59:44;22.20;80.70
23122;DHT22;11730;51.248;22.534;2022-10-31T10:02:52;23.70;77.10
23122;DHT22;11730;51.248;22.534;2022-10-31T10:05:25;23.30;76.60
23122;DHT22;11730;51.248;22.534;2022-10-31T10:08:01;23.60;77.40
23122;DHT22;11730;51.248;22.534;2022-10-31T10:11:07;24.80;74.50
23122;DHT22;11730;51.248;22.534;2022-10-31T10:30:16;24.10;72.70
23122;DHT22;11730;51.248;22.534;2022-10-31T10:35:29;25.80;69.90
23122;DHT22;11730;51.248;22.534;2022-10-31T10:38:03;24.70;71.30
23122;DHT22;11730;51.248;22.534;2022-10-31T10:40:35;23.90;71.00
23122;DHT22;11730;51.248;22.534;2022-10-31T10:43:29;24.20;71.50
23122;DHT22;11730;51.248;22.534;2022-10-31T10:52:03;24.80;68.00
23122;DHT22;11730;51.248;22.534;2022-10-31T10:55:08;24.40;68.30
23122;DHT22;11730;51.248;22.534;2022-10-31T11:00:35;24.10;67.70
23122;DHT22;11730;51.248;22.534;2022-10-31T11:03:03;25.30;66.70
23122;DHT22;11730;51.248;22.534;2022-10-31T11:08:33;25.50;63.00
23122;DHT22;11730;51.248;22.534;2022-10-31T11:13:55;24.50;66.30
23122;DHT22;11730;51.248;22.534;2022-10-31T11:16:35;25.40;66.20
23122;DHT22;11730;51.248;22.534;2022-10-31T11:19:19;25.10;66.30
23122;DHT22;11730;51.248;22.534;2022-10-31T11:21:47;25.40;66.40
23122;DHT22;11730;51.248;22.534;2022-10-31T11:24:24;25.60;65.70
23122;DHT22;11730;51.248;22.534;2022-10-31T11:27:12;26.50;65.30
23122;DHT22;11730;51.248;22.534;2022-10-31T11:29:39;25.60;65.20
23122;DHT22;11730;51.248;22.534;2022-10-31T11:32:22;25.60;64.80
23122;DHT22;11730;51.248;22.534;2022-10-31T11:34:58;25.90;64.70
23122;DHT22;11730;51.248;22.534;2022-10-31T11:37:34;25.90;64.70
23122;DHT22;11730;51.248;22.534;2022-10-31T11:40:05;26.30;63.90
23122;DHT22;11730;51.248;22.534;2022-10-31T11:42:38;26.40;63.30
23122;DHT22;11730;51.248;22.534;2022-10-31T11:45:32;26.10;64.40
23122;DHT22;11730;51.248;22.534;2022-10-31T11:48:01;25.90;64.10
23122;DHT22;11730;51.248;22.534;2022-10-31T11:50:39;25.10;63.20
23122;DHT22;11730;51.248;22.534;2022-10-31T11:53:18;24.40;65.50
23122;DHT22;11730;51.248;22.534;2022-10-31T11:55:46;23.90;68.20
23122;DHT22;11730;51.248;22.534;2022-10-31T11:58:22;24.10;67.80
23122;DHT22;11730;51.248;22.534;2022-10-31T12:00:52;24.80;67.20
23122;DHT22;11730;51.248;22.534;2022-10-31T12:06:12;24.30;67.40
23122;DHT22;11730;51.248;22.534;2022-10-31T12:08:41;24.30;67.60
23122;DHT22;11730;51.248;22.534;2022-10-31T12:14:16;24.20;67.80
23122;DHT22;11730;51.248;22.534;2022-10-31T12:28:54;23.50;68.90
23122;DHT22;11730;51.248;22.534;2022-10-31T12:42:09;23.10;70.40
23122;DHT22;11730;51.248;22.534;2022-10-31T12:47:42;22.40;71.10
23122;DHT22;11730;51.248;22.534;2022-10-31T12:58:26;22.10;73.10
23122;DHT22;11730;51.248;22.534;2022-10-31T13:01:14;22.20;73.20
23122;DHT22;11730;51.248;22.534;2022-10-31T13:04:01;20.90;75.80
23122;DHT22;11730;51.248;22.534;2022-10-31T13:06:38;21.20;75.10
23122;DHT22;11730;51.248;22.534;2022-10-31T13:09:15;21.40;74.70
23122;DHT22;11730;51.248;22.534;2022-10-31T13:11:48;21.30;75.40
23122;DHT22;11730;51.248;22.534;2022-10-31T13:14:32;21.80;74.60
23122;DHT22;11730;51.248;22.534;2022-10-31T13:17:00;21.90;74.20
23122;DHT22;11730;51.248;22.534;2022-10-31T13:19:34;22.00;74.30
23122;DHT22;11730;51.248;22.534;2022-10-31T13:22:24;22.00;74.30
23122;DHT22;11730;51.248;22.534;2022-10-31T13:25:03;22.10;74.40
23122;DHT22;11730;51.248;22.534;2022-10-31T13:27:56;21.40;75.80
23122;DHT22;11730;51.248;22.534;2022-10-31T13:30:27;21.00;76.80
23122;DHT22;11730;51.248;22.534;2022-10-31T13:33:07;21.40;76.80
23122;DHT22;11730;51.248;22.534;2022-10-31T13:35:46;21.40;75.80
23122;DHT22;11730;51.248;22.534;2022-10-31T13:39:02;21.20;76.50
23122;DHT22;11730;51.248;22.534;2022-10-31T13:44:13;20.80;77.20
23122;DHT22;11730;51.248;22.534;2022-10-31T13:46:43;21.10;77.40
23122;DHT22;11730;51.248;22.534;2022-10-31T13:54:33;20.30;79.20
23122;DHT22;11730;51.248;22.534;2022-10-31T13:59:31;20.10;80.30
23122;DHT22;11730;51.248;22.534;2022-10-31T14:02:01;19.70;80.60
23122;DHT22;11730;51.248;22.534;2022-10-31T14:04:51;19.60;81.70
23122;DHT22;11730;51.248;22.534;2022-10-31T14:07:23;19.60;81.80
23122;DHT22;11730;51.248;22.534;2022-10-31T14:10:02;19.10;83.10
23122;DHT22;11730;51.248;22.534;2022-10-31T14:12:42;19.00;84.30
23122;DHT22;11730;51.248;22.534;2022-10-31T14:15:24;18.60;85.30
23122;DHT22;11730;51.248;22.534;2022-10-31T14:17:57;18.40;86.30
23122;DHT22;11730;51.248;22.534;2022-10-31T14:20:37;18.10;87.30
23122;DHT22;11730;51.248;22.534;2022-10-31T14:28:35;17.70;89.40
23122;DHT22;11730;51.248;22.534;2022-10-31T14:31:02;17.20;90.30
23122;DHT22;11730;51.248;22.534;2022-10-31T14:33:30;16.70;91.00
23122;DHT22;11730;51.248;22.534;2022-10-31T14:36:08;16.80;91.50
23122;DHT22;11730;51.248;22.534;2022-10-31T14:39:00;16.60;91.70
23122;DHT22;11730;51.248;22.534;2022-10-31T14:42:01;16.40;92.50
23122;DHT22;11730;51.248;22.534;2022-10-31T14:52:55;16.30;93.40
23122;DHT22;11730;51.248;22.534;2022-10-31T14:55:24;16.00;93.70
23122;DHT22;11730;51.248;22.534;2022-10-31T14:58:01;15.90;94.50
23122;DHT22;11730;51.248;22.534;2022-10-31T15:00:29;15.60;94.90
23122;DHT22;11730;51.248;22.534;2022-10-31T15:03:21;15.60;95.90
23122;DHT22;11730;51.248;22.534;2022-10-31T15:05:52;15.80;95.90
23122;DHT22;11730;51.248;22.534;2022-10-31T15:08:39;15.80;95.90
23122;DHT22;11730;51.248;22.534;2022-10-31T15:13:51;15.40;97.40
23122;DHT22;11730;51.248;22.534;2022-10-31T15:16:26;15.10;98.30
23122;DHT22;11730;51.248;22.534;2022-10-31T15:18:59;15.40;98.70
23122;DHT22;11730;51.248;22.534;2022-10-31T15:21:27;15.20;98.90
23122;DHT22;11730;51.248;22.534;2022-10-31T15:23:57;15.20;99.60
23122;DHT22;11730;51.248;22.534;2022-10-31T15:26:29;15.20;99.50
23122;DHT22;11730;51.248;22.534;2022-10-31T15:31:26;14.40;99.90
23122;DHT22;11730;51.248;22.534;2022-10-31T15:33:54;14.60;99.90
23122;DHT22;11730;51.248;22.534;2022-10-31T15:36:23;14.60;99.90
23122;DHT22;11730;51.248;22.534;2022-10-31T15:38:56;14.80;99.90
23122;DHT22;11730;51.248;22.534;2022-10-31T15:43:55;14.10;99.90
23122;DHT22;11730;51.248;22.534;2022-10-31T15:46:24;14.50;99.90
23122;DHT22;11730;51.248;22.534;2022-10-31T15:48:53;14.40;99.90
23122;DHT22;11730;51.248;22.534;2022-10-31T15:51:30;14.30;99.90
23122;DHT22;11730;51.248;22.534;2022-10-31T15:56:29;14.30;99.90
23122;DHT22;11730;51.248;22.534;2022-10-31T15:58:58;14.40;99.90
23122;DHT22;11730;51.248;22.534;2022-10-31T16:01:29;14.30;99.90
23122;DHT22;11730;51.248;22.534;2022-10-31T16:06:33;14.60;99.90
23122;DHT22;11730;51.248;22.534;2022-10-31T16:09:01;14.10;99.90
23122;DHT22;11730;51.248;22.534;2022-10-31T16:11:37;14.40;99.90
23122;DHT22;11730;51.248;22.534;2022-10-31T16:16:32;14.00;99.90
23122;DHT22;11730;51.248;22.534;2022-10-31T16:19:04;13.90;99.90
23122;DHT22;11730;51.248;22.534;2022-10-31T16:21:35;13.90;99.90
23122;DHT22;11730;51.248;22.534;2022-10-31T16:24:16;13.70;99.90
23122;DHT22;11730;51.248;22.534;2022-10-31T16:26:52;13.80;99.90
23122;DHT22;11730;51.248;22.534;2022-10-31T16:29:32;13.70;99.90
23122;DHT22;11730;51.248;22.534;2022-10-31T16:31:59;13.30;99.90
23122;DHT22;11730;51.248;22.534;2022-10-31T16:36:53;13.60;99.90
23122;DHT22;11730;51.248;22.534;2022-10-31T16:39:20;13.60;99.90
23122;DHT22;11730;51.248;22.534;2022-10-31T16:41:56;13.40;99.90
23122;DHT22;11730;51.248;22.534;2022-10-31T16:44:25;13.30;99.90
23122;DHT22;11730;51.248;22.534;2022-10-31T16:49:34;13.80;99.90
23122;DHT22;11730;51.248;22.534;2022-10-31T16:54:28;13.00;99.90
23122;DHT22;11730;51.248;22.534;2022-10-31T16:56:58;13.30;99.90
23122;DHT22;11730;51.248;22.534;2022-10-31T16:59:26;13.30;99.90
23122;DHT22;11730;51.248;22.534;2022-10-31T17:01:54;13.40;99.90
23122;DHT22;11730;51.248;22.534;2022-10-31T17:06:49;13.00;99.90
23122;DHT22;11730;51.248;22.534;2022-10-31T17:09:16;13.00;99.90
23122;DHT22;11730;51.248;22.534;2022-10-31T17:11:46;13.20;99.90
23122;DHT22;11730;51.248;22.534;2022-10-31T17:14:16;12.90;99.90
23122;DHT22;11730;51.248;22.534;2022-10-31T17:16:44;13.10;99.90
23122;DHT22;11730;51.248;22.534;2022-10-31T17:19:11;13.20;99.90
23122;DHT22;11730;51.248;22.534;2022-10-31T17:21:39;13.10;99.90
23122;DHT22;11730;51.248;22.534;2022-10-31T17:24:08;13.20;99.90
23122;DHT22;11730;51.248;22.534;2022-10-31T17:26:36;12.60;99.90
23122;DHT22;11730;51.248;22.534;2022-10-31T17:31:33;12.80;99.90
23122;DHT22;11730;51.248;22.534;2022-10-31T17:34:02;12.80;99.90
23122;DHT22;11730;51.248;22.534;2022-10-31T17:36:32;12.10;99.90
23122;DHT22;11730;51.248;22.534;2022-10-31T17:38:59;12.40;99.90
23122;DHT22;11730;51.248;22.534;2022-10-31T17:41:26;12.40;99.90
23122;DHT22;11730;51.248;22.534;2022-10-31T17:43:57;12.20;99.90
23122;DHT22;11730;51.248;22.534;2022-10-31T17:46:25;12.30;99.90
23122;DHT22;11730;51.248;22.534;2022-10-31T17:51:19;12.70;99.90
23122;DHT22;11730;51.248;22.534;2022-10-31T17:53:46;12.40;99.90
23122;DHT22;11730;51.248;22.534;2022-10-31T17:58:40;11.70;99.90
23122;DHT22;11730;51.248;22.534;2022-10-31T18:01:10;12.20;99.90
23122;DHT22;11730;51.248;22.534;2022-10-31T18:03:38;12.20;99.90
23122;DHT22;11730;51.248;22.534;2022-10-31T18:08:34;12.00;99.90
23122;DHT22;11730;51.248;22.534;2022-10-31T18:11:06;12.20;99.90
23122;DHT22;11730;51.248;22.534;2022-10-31T18:13:36;12.10;99.90
23122;DHT22;11730;51.248;22.534;2022-10-31T18:16:14;11.90;99.90
23122;DHT22;11730;51.248;22.534;2022-10-31T18:18:41;12.00;99.90
23122;DHT22;11730;51.248;22.534;2022-10-31T18:21:08;12.10;99.90
23122;DHT22;11730;51.248;22.534;2022-10-31T18:23:35;12.20;99.90
23122;DHT22;11730;51.248;22.534;2022-10-31T18:28:30;11.60;99.90
23122;DHT22;11730;51.248;22.534;2022-10-31T18:30:58;11.30;99.90
23122;DHT22;11730;51.248;22.534;2022-10-31T18:33:26;11.30;99.90
23122;DHT22;11730;51.248;22.534;2022-10-31T18:35:54;11.60;99.90
23122;DHT22;11730;51.248;22.534;2022-10-31T18:38:21;11.50;99.90
23122;DHT22;11730;51.248;22.534;2022-10-31T18:40:50;12.10;99.90
23122;DHT22;11730;51.248;22.534;2022-10-31T18:43:17;11.60;99.90
23122;DHT22;11730;51.248;22.534;2022-10-31T18:50:43;11.50;99.90